Rochester, MA

7:21 PM EDT on March 26, 2015 (GMT -0400)
Plymouth Municipal | | Change Station
CLOSE
Current Station
Airport
Location: Plymouth,
Elevation: 148 ft
Nearby Weather Stations
Active Advisory: Dense Fog Advisory

Elev 148 ft 41.91 °N, 70.73 °W | Updated 8 minutes ago

Rain
Rain
52 °F
Feels Like 52 °F
N
15
Wind Variable Wind from SW
Gusts 24 mph

Today
High -- | Low -- °F
--% Chance of Precip.
Yesterday
High -- | Low -- °F
Precip. -- in
6:36 AM 7:01 PM
Waxing Crescent, 46% visible
Pressure 29.66 in
Visibility 3.0 miles
Clouds Mostly Cloudy 800 ft
Overcast 1300 ft
Dew Point 52 °F
Humidity 100%
Rainfall 0.38 in
Snow Depth Not available.
UV 0 out of 12
Pollen .90 out of 12
Air Quality Not available.
Flu Activity Not available.
SPECI KPYM 262313Z AUTO 22013G21KT 3SM -RA BR BKN008 OVC013 11/11 A2966 RMK AO2 CIG 005V010 P0012 T01110111

More Conditions Fewer Conditions

Pressure 29.66 in
Visibility 3.0 miles
Clouds Mostly Cloudy 800 ft
Overcast 1300 ft
Dew Point 52 °F
Humidity 100%
Rainfall 0.38 in
Snow Depth Not available.
UV 0 out of 12
Pollen .90 out of 12
Air Quality Not available.
Flu Activity Not available.
SPECI KPYM 262313Z AUTO 22013G21KT 3SM -RA BR BKN008 OVC013 11/11 A2966 RMK AO2 CIG 005V010 P0012 T01110111

More Conditions Fewer Conditions

10-Day Weather Forecast

Almanac

Astronomy

Mar. 26, 2015 Rise Set
Actual Time
Civil Twilight
Nautical Twilight
Astronomical Twilight
Moon
Length of Visible Light
Length of Day
Tomorrow will be .
, % of the Moon is Illuminated

Today's Extremes

State Highs State Lows

Community

WunderPhotos

Upload Photos

1,808,635 photos uploaded!

WunderBlogs® & News

Nearby

Air Quality

  Air Quality AQ Index Pollutant
Not available.

Snow Depth

Station Depth Elevation

Earthquake Activity

City Distance Mag. Time & Date
Minimum magnitude displayed is 2.5.

Coastal Water Temperatures

Place Temperature

Stations

Nearby Weather Stations

Station Location Temp. Windchill Dew Point Humidity Wind Precip. Elev Updated Type
                   
Dense Fog Advisory
Statement as of 3:10 PM EDT on March 26, 2015

... Dense fog advisory in effect until midnight EDT tonight...

The National Weather Service in Taunton has issued a dense fog
advisory... which is in effect until midnight EDT tonight.

* Locations... the South Coast including Cape Cod and the islands.

* Visibilities... one quarter of a mile or less at times.

* Timing... through midnight.

* Impacts... hazardous driving conditions with dense fog resulting
in poor visibility at times. Motorists are advised to slow down
as objects on and near roadways will be see only at close range.

Precautionary/preparedness actions...

A dense fog advisory is issued when dense fog will reduce
visibilities to one quarter mile or less for at least 3 hours...
resulting in hazardous driving conditions. Motorists are advised
to slow down as objects on and near roadways will be seen only at
close range.